Time;durP1;ratioP1;P1;durP2;ratioP2;P2;SDS_P1;SDS_P2;PMS_P1;PMS_P2;Temp;Humidity;BMP_temperature;BMP_pressure;BME280_temperature;BME280_humidity;BME280_pressure;Samples;Min_cycle;Max_cycle;Signal;HPM_P1;HPM_P2
2021/03/20 00:00:10;;;;;;;9.60;6.70;;;;;;;-0.50;85.14;96821.47;5041550;28;20471;-86
2021/03/20 00:02:36;;;;;;;11.40;6.97;;;;;;;-0.47;84.67;96820.56;5041180;28;20467;-86
2021/03/20 00:05:04;;;;;;;12.60;6.93;;;;;;;-0.52;84.95;96810.59;5041074;28;20568;-86
2021/03/20 00:07:30;;;;;;;11.57;6.77;;;;;;;-0.61;85.41;96819.38;5041186;28;20571;-87
2021/03/20 00:09:56;;;;;;;12.10;6.93;;;;;;;-0.49;85.36;96816.91;5041134;28;20581;-87
2021/03/20 00:12:22;;;;;;;12.93;6.90;;;;;;;-0.57;85.61;96822.56;5041044;28;20445;-88
2021/03/20 00:14:49;;;;;;;10.97;6.10;;;;;;;-0.55;85.87;96820.19;5040097;28;21009;-86
2021/03/20 00:17:16;;;;;;;13.17;7.83;;;;;;;-0.51;86.48;96816.63;5040006;28;20543;-86
2021/03/20 00:19:42;;;;;;;10.77;6.87;;;;;;;-0.45;85.58;96820.13;5040063;28;20442;-85
2021/03/20 00:22:08;;;;;;;14.20;6.80;;;;;;;-0.50;85.90;96821.47;5039706;28;20482;-86
2021/03/20 00:24:34;;;;;;;10.10;6.77;;;;;;;-0.54;86.17;96828.88;5040307;28;20815;-86
2021/03/20 00:27:00;;;;;;;9.50;5.80;;;;;;;-0.54;86.29;96828.88;5040009;28;20566;-86
2021/03/20 00:29:26;;;;;;;12.73;7.53;;;;;;;-0.49;86.04;96840.75;5040273;28;20438;-86
2021/03/20 00:31:53;;;;;;;13.77;6.43;;;;;;;-0.49;86.08;96827.50;5040114;28;20940;-85
2021/03/20 00:34:19;;;;;;;16.97;7.10;;;;;;;-0.51;86.51;96820.03;5040004;28;20948;-85
2021/03/20 00:36:45;;;;;;;10.50;6.30;;;;;;;-0.49;86.47;96820.28;5039713;28;20447;-85
2021/03/20 00:39:11;;;;;;;8.73;6.13;;;;;;;-0.57;86.93;96821.84;5039350;28;20423;-86
2021/03/20 00:41:37;;;;;;;13.23;7.07;;;;;;;-0.62;87.39;96830.41;5039773;28;20865;-86
2021/03/20 00:44:04;;;;;;;12.67;7.43;;;;;;;-0.69;87.63;96820.19;5039272;28;20465;-87
2021/03/20 00:46:30;;;;;;;13.80;7.10;;;;;;;-0.63;87.53;96821.72;5039681;28;20511;-87
2021/03/20 00:48:57;;;;;;;13.43;6.23;;;;;;;-0.52;87.65;96821.19;5039322;28;20482;-87
2021/03/20 00:51:23;;;;;;;12.83;6.90;;;;;;;-0.65;87.54;96829.41;5048948;28;20500;-87
2021/03/20 00:53:49;;;;;;;14.80;6.50;;;;;;;-0.71;88.23;96825.91;5060064;28;20451;-87
2021/03/20 00:56:15;;;;;;;12.27;6.67;;;;;;;-0.57;87.91;96822.56;5060052;28;20431;-86
2021/03/20 00:58:42;;;;;;;10.50;5.90;;;;;;;-0.57;87.62;96827.88;5059927;28;20494;-87
2021/03/20 01:01:11;;;;;;;10.30;6.30;;;;;;;-0.62;87.82;96822.44;5049956;28;20522;-87
2021/03/20 01:03:38;;;;;;;10.87;6.57;;;;;;;-0.56;88.06;96818.72;5040127;28;21018;-85
2021/03/20 01:06:05;;;;;;;11.13;6.90;;;;;;;-0.60;88.35;96828.06;5039371;28;20436;-86
2021/03/20 01:08:32;;;;;;;11.63;6.10;;;;;;;-0.55;88.38;96830.78;5040045;28;20487;-86
2021/03/20 01:10:58;;;;;;;8.40;5.60;;;;;;;-0.58;88.26;96825.66;5039011;28;20443;-86
2021/03/20 01:13:24;;;;;;;10.10;6.30;;;;;;;-0.55;88.14;96832.72;5039098;28;20561;-85
2021/03/20 01:15:50;;;;;;;7.30;4.97;;;;;;;-0.50;88.49;96837.38;5039379;28;20526;-87
2021/03/20 01:18:17;;;;;;;9.87;6.03;;;;;;;-0.43;88.15;96823.03;5039692;28;20455;-86
2021/03/20 01:20:44;;;;;;;10.93;6.70;;;;;;;-0.40;87.67;96820.22;5038817;28;20435;-86
2021/03/20 01:23:11;;;;;;;12.07;7.23;;;;;;;-0.35;87.55;96824.91;5039405;28;20546;-87
2021/03/20 01:25:38;;;;;;;10.00;6.30;;;;;;;-0.38;87.02;96820.50;5039070;28;20526;-86
2021/03/20 01:28:04;;;;;;;13.23;6.63;;;;;;;-0.37;87.68;96829.16;5039433;28;20516;-88
2021/03/20 01:30:33;;;;;;;13.27;7.10;;;;;;;-0.32;87.48;96821.31;5039232;28;20506;-87
2021/03/20 01:32:59;;;;;;;10.07;5.70;;;;;;;-0.30;86.94;96821.59;5038751;28;20449;-87
2021/03/20 01:35:25;;;;;;;8.07;6.67;;;;;;;-0.43;87.39;96829.06;5038806;28;20447;-86
2021/03/20 01:37:52;;;;;;;14.40;7.53;;;;;;;-0.43;88.30;96829.06;5038372;28;20455;-86
2021/03/20 01:40:21;;;;;;;12.50;7.23;;;;;;;-0.32;87.71;96829.28;5038851;28;20454;-85
2021/03/20 01:42:47;;;;;;;8.97;6.33;;;;;;;-0.21;87.47;96829.47;5037824;28;20561;-85
2021/03/20 01:45:21;;;;;;;12.17;7.43;;;;;;;-0.19;87.03;96824.44;5037903;28;20483;-85
2021/03/20 01:47:51;;;;;;;13.73;6.20;;;;;;;-0.18;87.39;96838.41;5055876;28;20502;-86
2021/03/20 01:50:26;;;;;;;12.90;6.57;;;;;;;-0.25;87.42;96833.50;5058960;28;20455;-86
2021/03/20 01:52:55;;;;;;;14.13;6.67;;;;;;;-0.17;87.46;96845.19;5058296;28;20435;-87
2021/03/20 01:55:24;;;;;;;15.80;7.30;;;;;;;-0.23;87.71;96836.41;5038867;28;20924;-88
2021/03/20 01:57:54;;;;;;;11.30;6.83;;;;;;;-0.21;87.93;96839.34;5038193;28;20549;-88
2021/03/20 02:00:26;;;;;;;14.40;6.73;;;;;;;-0.19;87.64;96839.63;5038340;28;20408;-87
2021/03/20 02:02:53;;;;;;;11.60;6.67;;;;;;;-0.18;87.69;96838.41;5038419;28;21074;-87
2021/03/20 02:05:22;;;;;;;13.13;7.17;;;;;;;-0.23;87.98;96847.75;5038533;28;20427;-87
2021/03/20 02:07:49;;;;;;;9.63;6.70;;;;;;;-0.20;88.12;96838.88;5038283;28;20534;-87
2021/03/20 02:10:16;;;;;;;12.30;6.10;;;;;;;-0.04;87.64;96832.41;5038586;28;20466;-87
2021/03/20 02:12:46;;;;;;;11.27;7.10;;;;;;;-0.09;87.12;96846.28;5038016;28;20443;-87
2021/03/20 02:15:19;;;;;;;10.50;6.00;;;;;;;-0.23;88.21;96839.81;5038170;28;20447;-87
2021/03/20 02:17:51;;;;;;;8.97;6.27;;;;;;;-0.13;88.34;96846.50;5037763;28;20562;-87
2021/03/20 02:20:30;;;;;;;10.00;6.47;;;;;;;0.02;87.84;96837.78;5037697;28;20434;-87
2021/03/20 02:23:43;;;;;;;16.73;7.27;;;;;;;-0.08;87.68;96842.44;5038271;28;20486;-87
2021/03/20 02:26:30;;;;;;;11.23;6.70;;;;;;;-0.01;87.75;96842.84;5037606;28;20418;-88
2021/03/20 02:29:56;;;;;;;14.20;7.53;;;;;;;-0.17;88.08;96845.19;5037706;28;20523;-88
2021/03/20 02:32:32;;;;;;;12.00;6.73;;;;;;;0.03;87.82;96844.56;5009784;28;20515;-88
2021/03/20 02:35:05;;;;;;;12.93;7.00;;;;;;;0.15;87.58;96838.25;5038228;28;20431;-86
2021/03/20 02:37:43;;;;;;;12.33;6.87;;;;;;;0.17;87.27;96836.59;5037440;28;21128;-85
2021/03/20 02:40:18;;;;;;;11.57;7.10;;;;;;;0.18;87.05;96846.03;5037747;28;20457;-87
2021/03/20 02:42:55;;;;;;;12.53;7.67;;;;;;;0.02;87.91;96846.47;5037982;28;20581;-88
2021/03/20 02:45:27;;;;;;;11.20;6.73;;;;;;;0.03;88.47;96836.59;5037277;28;20584;-88
2021/03/20 02:48:05;;;;;;;12.70;7.80;;;;;;;-0.01;88.76;96834.88;5036923;28;20459;-86
2021/03/20 02:50:38;;;;;;;17.60;8.40;;;;;;;-0.10;89.59;96840.28;5038095;28;20438;-86
2021/03/20 02:53:09;;;;;;;14.90;8.60;;;;;;;-0.07;89.31;96834.06;5037406;28;20431;-86
2021/03/20 02:55:40;;;;;;;10.17;6.77;;;;;;;-0.11;89.99;96835.41;5037786;28;20430;-86
2021/03/20 02:58:11;;;;;;;15.10;8.33;;;;;;;-0.13;90.02;96822.63;5037280;28;20463;-86
2021/03/20 03:00:40;;;;;;;17.20;7.90;;;;;;;-0.09;89.75;96825.06;5037483;28;20900;-85
2021/03/20 03:03:10;;;;;;;13.80;7.60;;;;;;;-0.16;90.27;96828.09;5037072;28;20483;-85
2021/03/20 03:05:42;;;;;;;12.70;8.57;;;;;;;0.06;90.02;96833.78;5037019;28;20447;-85
2021/03/20 03:08:13;;;;;;;19.40;9.23;;;;;;;0.12;89.68;96826.63;5037000;28;20550;-85
2021/03/20 03:10:45;;;;;;;13.70;8.50;;;;;;;0.13;89.16;96822.03;5037199;28;20422;-85
2021/03/20 03:13:15;;;;;;;13.67;8.70;;;;;;;0.14;89.22;96820.88;5040933;28;20975;-84
2021/03/20 03:15:46;;;;;;;16.20;8.40;;;;;;;0.06;89.21;96819.78;5041455;28;20499;-85
2021/03/20 03:18:21;;;;;;;13.50;7.80;;;;;;;-0.21;90.34;96818.13;5040289;28;20530;-85
2021/03/20 03:20:50;;;;;;;13.83;7.50;;;;;;;-0.37;91.23;96816.66;5041228;28;20446;-85
2021/03/20 03:23:19;;;;;;;14.77;8.13;;;;;;;-0.39;91.77;96818.28;5041143;28;20457;-87
2021/03/20 03:25:49;;;;;;;10.93;7.07;;;;;;;-0.32;92.09;96828.53;5041575;28;20437;-87
2021/03/20 03:28:19;;;;;;;13.90;8.97;;;;;;;-0.17;91.46;96830.03;5041021;28;20460;-86
2021/03/20 03:30:45;;;;;;;11.90;8.10;;;;;;;-0.17;91.26;96834.59;5041400;28;20514;-86
2021/03/20 03:33:17;;;;;;;16.63;8.90;;;;;;;-0.27;92.06;96823.34;5040826;28;20846;-86
2021/03/20 03:35:48;;;;;;;12.77;7.70;;;;;;;-0.25;92.13;96834.19;5040590;28;20402;-86
2021/03/20 03:38:23;;;;;;;15.10;9.43;;;;;;;-0.24;92.63;96840.97;5040681;28;20495;-86
2021/03/20 03:40:56;;;;;;;16.33;8.70;;;;;;;-0.16;92.67;96841.38;5040895;28;20475;-86
2021/03/20 03:43:22;;;;;;;21.27;9.23;;;;;;;-0.37;93.69;96847.72;5040678;28;20451;-86
2021/03/20 03:45:49;;;;;;;17.33;9.30;;;;;;;-0.35;94.05;96845.38;5040396;28;20500;-86
2021/03/20 03:48:21;;;;;;;14.87;8.77;;;;;;;-0.28;94.08;96850.31;5040248;28;20546;-86
2021/03/20 03:50:48;;;;;;;12.90;9.17;;;;;;;-0.27;93.68;96847.19;5040357;28;20923;-86
2021/03/20 03:53:19;;;;;;;13.37;8.63;;;;;;;-0.33;94.16;96850.94;5045011;28;20454;-87
2021/03/20 03:55:45;;;;;;;14.50;9.93;;;;;;;-0.35;94.24;96861.25;5061195;28;20407;-87
2021/03/20 03:58:28;;;;;;;15.13;8.33;;;;;;;-0.49;94.77;96865.34;5061000;28;20454;-88
2021/03/20 04:01:01;;;;;;;15.57;9.40;;;;;;;-0.51;95.40;96873.03;5060952;28;20423;-88
2021/03/20 04:04:04;;;;;;;17.23;10.13;;;;;;;-0.53;95.47;96866.72;5051831;28;20522;-86
2021/03/20 04:06:43;;;;;;;15.53;9.80;;;;;;;-0.48;95.61;96872.13;5040507;28;20507;-86
2021/03/20 04:09:25;;;;;;;14.17;10.00;;;;;;;-0.47;95.29;96864.91;5040752;28;20431;-86
2021/03/20 04:11:59;;;;;;;16.60;9.53;;;;;;;-0.42;94.90;96865.00;5039968;28;20411;-86
2021/03/20 04:14:35;;;;;;;15.87;9.50;;;;;;;-0.44;94.81;96864.00;5040089;28;20485;-85
2021/03/20 04:17:06;;;;;;;18.93;10.90;;;;;;;-0.36;94.57;96859.78;5039478;28;20988;-86
2021/03/20 04:19:41;;;;;;;14.00;8.43;;;;;;;-0.37;94.01;96866.28;5040110;28;20522;-85
2021/03/20 04:22:12;;;;;;;13.40;7.77;;;;;;;-0.49;94.03;96857.38;5040022;28;20467;-86
2021/03/20 04:24:43;;;;;;;14.00;8.20;;;;;;;-0.49;94.33;96848.69;5039994;28;20466;-85
2021/03/20 04:27:12;;;;;;;14.63;9.10;;;;;;;-0.59;94.26;96858.63;5039479;28;20534;-85
2021/03/20 04:29:45;;;;;;;11.80;7.77;;;;;;;-0.50;94.38;96852.56;5039940;28;20443;-86
2021/03/20 04:32:14;;;;;;;17.73;9.23;;;;;;;-0.55;94.11;96859.94;5039935;28;20998;-86
2021/03/20 04:34:47;;;;;;;13.23;8.27;;;;;;;-0.57;94.57;96853.63;5039611;28;20514;-87
2021/03/20 04:37:16;;;;;;;13.10;8.97;;;;;;;-0.58;93.84;96865.41;5039878;28;20546;-86
2021/03/20 04:39:44;;;;;;;24.70;10.90;;;;;;;-0.55;93.74;96867.88;5039336;28;20436;-86
2021/03/20 04:42:11;;;;;;;13.20;8.30;;;;;;;-0.59;93.98;96875.28;5039106;28;20491;-86
2021/03/20 04:44:38;;;;;;;16.93;10.00;;;;;;;-0.53;93.42;96878.03;5039275;28;20513;-86
2021/03/20 04:47:08;;;;;;;17.80;9.27;;;;;;;-0.60;94.91;96887.06;5046477;28;20528;-86
2021/03/20 04:49:40;;;;;;;14.43;8.87;;;;;;;-0.60;94.62;96881.03;5039932;28;20450;-87
2021/03/20 04:52:14;;;;;;;15.77;8.40;;;;;;;-0.62;95.20;96891.34;5040026;28;20427;-86
2021/03/20 04:54:41;;;;;;;15.40;8.83;;;;;;;-0.75;94.76;96888.22;5041094;28;20423;-86
2021/03/20 04:57:18;;;;;;;18.60;9.97;;;;;;;-0.69;95.10;96886.41;5039900;28;20466;-87
2021/03/20 04:59:53;;;;;;;18.30;11.73;;;;;;;-0.76;95.92;96890.13;5039164;28;20778;-86
2021/03/20 05:02:26;;;;;;;18.60;10.37;;;;;;;-0.74;96.60;96887.75;5039074;28;20474;-86
2021/03/20 05:04:57;;;;;;;14.63;8.67;;;;;;;-0.75;96.56;96886.28;5039129;28;20459;-86
2021/03/20 05:07:26;;;;;;;14.00;9.03;;;;;;;-0.84;96.56;96888.25;5039737;28;20541;-88
2021/03/20 05:09:57;;;;;;;14.60;8.33;;;;;;;-0.82;96.79;96889.28;5039655;28;20481;-86
2021/03/20 05:12:27;;;;;;;17.23;9.40;;;;;;;-0.80;96.77;96876.31;5041291;28;20457;-87
2021/03/20 05:15:01;;;;;;;18.93;11.17;;;;;;;-0.88;96.78;96875.19;5041247;28;20443;-87
2021/03/20 05:17:28;;;;;;;17.70;8.90;;;;;;;-0.84;96.78;96875.00;5040940;28;20466;-86
2021/03/20 05:19:54;;;;;;;14.77;8.93;;;;;;;-0.90;96.37;96876.81;5041147;28;20489;-87
2021/03/20 05:22:27;;;;;;;11.33;8.13;;;;;;;-0.91;96.54;96883.31;5041241;28;21029;-87
2021/03/20 05:24:56;;;;;;;13.13;7.77;;;;;;;-0.98;96.85;96883.63;5041247;28;20501;-87
2021/03/20 05:27:24;;;;;;;11.90;7.80;;;;;;;-0.86;96.37;96886.06;5040727;28;20554;-87
2021/03/20 05:29:51;;;;;;;14.07;9.13;;;;;;;-1.01;96.24;96885.28;5041162;28;20525;-87
2021/03/20 05:32:22;;;;;;;12.10;7.50;;;;;;;-0.78;95.91;96891.72;5040943;28;20503;-87
2021/03/20 05:34:48;;;;;;;12.70;8.70;;;;;;;-0.92;95.09;96890.50;5041971;28;20589;-87
2021/03/20 05:37:20;;;;;;;13.80;8.40;;;;;;;-0.78;95.75;96889.81;5040758;28;20451;-87
2021/03/20 05:39:47;;;;;;;15.70;8.80;;;;;;;-0.60;94.92;96900.31;5041588;28;20849;-87
2021/03/20 05:42:44;;;;;;;13.57;8.70;;;;;;;-0.63;94.92;96908.44;5041479;28;20553;-87
2021/03/20 05:45:28;;;;;;;14.67;8.80;;;;;;;-0.59;94.68;96891.16;5040697;28;20634;-87
2021/03/20 05:48:05;;;;;;;12.10;8.23;;;;;;;-0.60;94.39;96897.66;5039994;28;20527;-87
2021/03/20 05:50:45;;;;;;;14.77;8.50;;;;;;;-0.62;94.85;96892.06;5041734;28;20431;-87
2021/03/20 05:53:43;;;;;;;16.53;10.17;;;;;;;-0.68;94.69;96898.44;5041826;28;20483;-87
2021/03/20 05:56:16;;;;;;;16.70;8.70;;;;;;;-0.59;94.07;96907.06;5041164;28;20446;-87
2021/03/20 05:59:00;;;;;;;13.87;8.93;;;;;;;-0.85;95.29;96898.13;5041051;28;20940;-88
2021/03/20 06:01:40;;;;;;;14.63;9.20;;;;;;;-0.76;95.49;96900.72;5039879;28;20476;-88
2021/03/20 06:04:30;;;;;;;13.43;8.30;;;;;;;-0.82;95.26;96915.75;5040113;28;20455;-88
2021/03/20 06:07:11;;;;;;;11.30;7.33;;;;;;;-0.73;94.63;96922.91;5039103;28;20467;-88
2021/03/20 06:09:49;;;;;;;13.67;8.50;;;;;;;-0.69;93.40;96910.94;5039510;28;20968;-88
2021/03/20 06:12:33;;;;;;;10.97;7.80;;;;;;;-0.75;93.75;96912.75;5039259;28;20826;-87
2021/03/20 06:15:12;;;;;;;10.87;7.63;;;;;;;-0.88;94.79;96925.50;5039007;28;20483;-87
2021/03/20 06:17:58;;;;;;;11.60;7.87;;;;;;;-0.64;93.93;96926.25;5039462;28;20474;-87
2021/03/20 06:20:33;;;;;;;13.63;8.40;;;;;;;-0.49;92.88;96928.94;5041012;28;20439;-87
2021/03/20 06:23:23;;;;;;;14.03;8.67;;;;;;;-0.45;91.66;96929.50;5040836;28;20466;-86
2021/03/20 06:26:02;;;;;;;15.20;6.90;;;;;;;-0.48;91.25;96935.72;5036202;28;20534;-87
2021/03/20 06:28:33;;;;;;;13.97;9.03;;;;;;;-0.50;91.35;96934.69;5039533;28;20475;-86
2021/03/20 06:31:05;;;;;;;11.90;7.00;;;;;;;-0.57;91.34;96935.78;5038812;28;20464;-86
2021/03/20 06:33:34;;;;;;;11.73;7.20;;;;;;;-0.58;91.55;96939.59;5039173;28;20470;-87
2021/03/20 06:36:04;;;;;;;12.73;8.20;;;;;;;-0.50;91.08;96945.31;5039892;28;20463;-86
2021/03/20 06:38:38;;;;;;;9.47;6.53;;;;;;;-0.41;89.75;96948.63;5039930;28;20487;-87
2021/03/20 06:41:17;;;;;;;9.20;6.07;;;;;;;-0.49;89.29;96944.84;5042945;28;20466;-87
2021/03/20 06:43:51;;;;;;;8.97;6.57;;;;;;;-0.59;89.17;96964.63;5039902;28;20489;-85
2021/03/20 06:46:21;;;;;;;8.90;6.23;;;;;;;-0.58;89.26;96969.47;5041058;28;20474;-85
2021/03/20 06:48:48;;;;;;;9.03;5.73;;;;;;;-0.53;88.03;96973.41;5043837;28;20559;-85
2021/03/20 06:51:15;;;;;;;12.33;6.13;;;;;;;-0.57;87.95;96956.97;5043839;28;20475;-85
2021/03/20 06:53:45;;;;;;;15.10;6.53;;;;;;;-0.46;87.65;96964.41;5043399;28;20538;-86
2021/03/20 06:56:14;;;;;;;10.83;5.90;;;;;;;-0.39;86.99;96970.09;5043669;28;20867;-85
2021/03/20 06:58:42;;;;;;;11.20;6.50;;;;;;;-0.34;85.99;96966.81;5044287;28;20875;-85
2021/03/20 07:01:40;;;;;;;7.20;4.90;;;;;;;-0.25;84.56;96972.06;5045903;28;20431;-85
2021/03/20 07:04:45;;;;;;;8.70;5.37;;;;;;;-0.10;84.40;96980.81;5047757;28;20427;-85
2021/03/20 07:07:26;;;;;;;19.40;6.03;;;;;;;-0.12;84.14;96977.84;5046436;28;20519;-85
2021/03/20 07:09:53;;;;;;;8.97;5.13;;;;;;;-0.19;83.01;96986.16;5046214;28;20465;-87
2021/03/20 07:12:21;;;;;;;8.53;4.33;;;;;;;-0.02;82.88;96989.13;5043834;28;20439;-86
2021/03/20 07:14:49;;;;;;;9.90;4.80;;;;;;;0.23;82.35;96988.63;5043345;28;20447;-85
2021/03/20 07:17:42;;;;;;;10.17;4.93;;;;;;;0.26;79.74;96985.06;5042776;28;20487;-86
2021/03/20 07:20:11;;;;;;;9.60;4.87;;;;;;;0.31;79.14;96989.03;5022786;28;20549;-86
2021/03/20 07:22:41;;;;;;;16.83;5.07;;;;;;;0.19;78.50;96990.03;5042450;28;20517;-86
2021/03/20 07:25:24;;;;;;;7.83;4.80;;;;;;;-0.05;77.93;96995.34;5042700;28;20526;-86
2021/03/20 07:27:52;;;;;;;8.50;4.40;;;;;;;-0.25;78.98;96995.91;5042131;28;20544;-86
2021/03/20 07:30:31;;;;;;;5.73;3.80;;;;;;;-0.21;79.17;96988.53;5042372;28;20449;-87
2021/03/20 07:32:58;;;;;;;10.53;4.50;;;;;;;0.01;77.33;96996.19;5043622;28;20492;-87
2021/03/20 07:35:34;;;;;;;6.07;4.67;;;;;;;0.13;77.65;97000.50;5042803;28;20443;-87
2021/03/20 07:38:18;;;;;;;8.03;4.80;;;;;;;-0.05;76.77;96995.34;5043776;28;20443;-87
2021/03/20 07:40:45;;;;;;;14.00;4.20;;;;;;;-0.06;76.29;97002.56;5044232;28;20519;-89
2021/03/20 07:43:13;;;;;;;5.20;4.60;;;;;;;-0.08;77.12;97004.22;5043444;28;20483;-86
2021/03/20 07:45:40;;;;;;;7.70;4.60;;;;;;;-0.14;76.66;96998.81;5043076;28;20489;-87
2021/03/20 07:48:17;;;;;;;8.07;4.87;;;;;;;0.10;76.26;97012.03;5043697;28;20494;-86
2021/03/20 07:50:45;;;;;;;7.17;4.53;;;;;;;0.04;76.82;97002.50;5043527;28;20451;-85
2021/03/20 07:53:14;;;;;;;13.17;4.60;;;;;;;0.03;76.95;97003.69;5042778;28;20530;-86
2021/03/20 07:55:55;;;;;;;9.43;4.63;;;;;;;0.17;76.90;97011.69;5042827;28;20450;-87
2021/03/20 07:58:24;;;;;;;5.53;4.70;;;;;;;0.33;75.66;96999.91;5041779;28;20820;-87
2021/03/20 08:00:56;;;;;;;7.80;5.17;;;;;;;0.58;75.25;97003.97;5041853;28;20519;-87
2021/03/20 08:03:28;;;;;;;7.97;4.60;;;;;;;0.33;74.29;97016.56;5043731;28;20474;-84
2021/03/20 08:06:10;;;;;;;5.80;4.60;;;;;;;0.70;74.46;97034.81;5042369;28;20899;-87
2021/03/20 08:08:38;;;;;;;11.43;5.53;;;;;;;0.85;72.87;97023.00;5044283;28;20550;-85
2021/03/20 08:11:05;;;;;;;9.03;4.70;;;;;;;0.77;72.54;97043.16;5060280;28;20446;-86
2021/03/20 08:13:41;;;;;;;7.93;4.60;;;;;;;0.98;70.48;97049.28;5060706;28;20523;-87
2021/03/20 08:16:08;;;;;;;11.10;3.93;;;;;;;0.56;71.79;97046.91;5060054;28;20443;-85
2021/03/20 08:18:37;;;;;;;5.57;3.83;;;;;;;0.47;71.52;97053.00;5041878;28;20466;-85
2021/03/20 08:21:31;;;;;;;9.97;5.17;;;;;;;0.52;70.38;97051.66;5042538;28;20463;-87
2021/03/20 08:24:24;;;;;;;5.07;3.63;;;;;;;0.46;71.11;97048.16;5025908;28;20978;-86
2021/03/20 08:26:59;;;;;;;8.87;4.20;;;;;;;0.45;70.31;97041.38;5042306;28;20455;-87
2021/03/20 08:29:47;;;;;;;4.70;3.53;;;;;;;0.25;71.65;97028.00;5042124;28;20439;-86
2021/03/20 08:32:30;;;;;;;4.60;4.10;;;;;;;0.43;69.79;97031.22;5042087;28;20507;-88
2021/03/20 08:35:15;;;;;;;5.83;3.93;;;;;;;0.34;69.46;97044.56;5042732;28;20494;-86
2021/03/20 08:37:53;;;;;;;5.67;3.70;;;;;;;0.20;68.05;97044.53;5042509;28;20606;-87
2021/03/20 08:40:31;;;;;;;8.17;3.60;;;;;;;-0.10;67.93;97052.41;5042122;28;20427;-85
2021/03/20 08:43:15;;;;;;;6.70;4.00;;;;;;;-0.17;70.57;97058.03;5041669;28;20477;-87
2021/03/20 08:45:55;;;;;;;6.83;3.60;;;;;;;0.12;69.89;97070.69;5043270;28;20448;-86
2021/03/20 08:48:31;;;;;;;6.53;3.90;;;;;;;0.50;69.55;97062.00;5042623;28;20498;-86
2021/03/20 08:51:12;;;;;;;3.73;2.70;;;;;;;0.53;64.76;97059.13;5041118;28;20419;-88
2021/03/20 08:53:49;;;;;;;6.80;4.10;;;;;;;0.44;65.27;97072.50;5042448;28;21003;-86
2021/03/20 08:56:34;;;;;;;4.93;3.90;;;;;;;0.41;67.43;97077.97;5041995;28;20804;-86
2021/03/20 08:59:03;;;;;;;13.20;4.47;;;;;;;0.61;66.97;97078.13;5042556;28;20438;-87
2021/03/20 09:01:39;;;;;;;5.93;3.83;;;;;;;0.74;64.93;97072.53;5041853;28;20458;-87
2021/03/20 09:04:09;;;;;;;6.07;3.50;;;;;;;0.62;62.19;97076.19;5042887;28;20494;-87
2021/03/20 09:06:39;;;;;;;6.20;3.50;;;;;;;0.93;61.24;97073.84;5041844;28;20443;-86
2021/03/20 09:09:14;;;;;;;7.33;4.13;;;;;;;1.02;57.76;97076.41;5041302;28;20470;-87
2021/03/20 09:11:46;;;;;;;6.93;4.73;;;;;;;0.98;58.33;97068.63;5041846;28;20474;-86
2021/03/20 09:14:18;;;;;;;7.80;3.90;;;;;;;1.01;59.78;97072.28;5039212;28;20420;-86
2021/03/20 09:16:47;;;;;;;6.50;3.80;;;;;;;1.15;57.69;97068.91;5039616;28;20518;-86
2021/03/20 09:19:22;;;;;;;5.13;2.83;;;;;;;1.27;58.09;97065.22;5040332;28;20436;-85
2021/03/20 09:21:50;;;;;;;3.37;2.70;;;;;;;1.25;54.76;97074.84;5042289;28;20470;-85
2021/03/20 09:24:21;;;;;;;3.10;2.37;;;;;;;1.32;53.23;97077.09;5039500;28;20474;-86
2021/03/20 09:26:49;;;;;;;6.60;4.13;;;;;;;1.05;55.85;97073.56;5040599;28;20434;-86
2021/03/20 09:29:22;;;;;;;8.00;2.80;;;;;;;1.13;56.46;97075.88;5042735;28;20443;-85
2021/03/20 09:32:04;;;;;;;5.07;3.30;;;;;;;1.52;56.42;97088.56;5040828;28;20510;-86
2021/03/20 09:34:48;;;;;;;4.47;2.90;;;;;;;1.72;54.58;97082.56;5041326;28;20851;-85
2021/03/20 09:37:57;;;;;;;6.83;2.70;;;;;;;1.52;54.76;97074.53;5040831;28;20495;-86
2021/03/20 09:40:52;;;;;;;4.37;2.70;;;;;;;1.73;52.98;97084.00;5038476;28;20459;-88
2021/03/20 09:43:27;;;;;;;5.00;3.00;;;;;;;2.02;54.17;97083.91;5037430;28;20876;-86
2021/03/20 09:46:31;;;;;;;4.67;3.10;;;;;;;1.97;51.99;97081.19;5039486;28;20431;-86
2021/03/20 09:48:57;;;;;;;8.00;3.37;;;;;;;1.98;53.56;97077.31;5039821;28;20470;-86
2021/03/20 09:51:58;;;;;;;4.47;3.23;;;;;;;1.70;52.13;97079.59;5040444;28;20511;-88
2021/03/20 09:54:43;;;;;;;5.90;3.23;;;;;;;1.51;53.31;97065.06;5040933;28;20462;-87
2021/03/20 09:57:50;;;;;;;4.00;3.17;;;;;;;1.41;54.44;97069.75;5041061;28;20477;-88
2021/03/20 10:01:01;;;;;;;5.00;3.30;;;;;;;1.55;54.44;97076.25;5040563;28;20431;-88
2021/03/20 10:03:43;;;;;;;4.00;2.67;;;;;;;1.88;53.32;97076.72;4962146;29;20490;-90
2021/03/20 10:06:22;;;;;;;6.60;2.83;;;;;;;1.89;51.79;97083.50;5038936;28;20532;-87
2021/03/20 10:09:13;;;;;;;5.63;2.70;;;;;;;1.99;51.29;97058.25;5056951;28;20471;-86
2021/03/20 10:11:43;;;;;;;4.50;2.40;;;;;;;1.87;48.99;97077.19;5050878;28;20462;-86
2021/03/20 10:14:24;;;;;;;3.30;2.57;;;;;;;1.69;49.62;97067.53;5047605;28;20896;-86
2021/03/20 10:17:04;;;;;;;4.50;2.60;;;;;;;2.14;50.15;97061.56;5040256;28;20550;-85
2021/03/20 10:19:35;;;;;;;4.60;1.97;;;;;;;2.52;48.38;97051.81;5040106;28;20865;-86
2021/03/20 10:22:04;;;;;;;7.63;2.40;;;;;;;2.69;47.81;97052.72;5039439;28;20614;-85
2021/03/20 10:24:30;;;;;;;3.80;2.80;;;;;;;2.52;48.16;97060.53;5039486;28;20431;-85
2021/03/20 10:27:00;;;;;;;8.63;2.23;;;;;;;1.87;48.54;97051.31;5040941;28;20471;-85
2021/03/20 10:29:30;;;;;;;5.00;2.37;;;;;;;2.22;47.89;97059.25;5041528;28;20435;-86
2021/03/20 10:32:14;;;;;;;3.30;2.33;;;;;;;2.40;46.98;97055.56;5041945;28;20492;-87
2021/03/20 10:34:50;;;;;;;3.93;2.10;;;;;;;2.38;44.08;97053.34;5041048;28;20533;-86
2021/03/20 10:37:17;;;;;;;3.43;2.67;;;;;;;2.34;44.69;97049.44;5040342;28;20485;-85
2021/03/20 10:39:45;;;;;;;2.23;2.03;;;;;;;2.16;44.32;97061.81;5041686;28;20463;-87
2021/03/20 10:42:26;;;;;;;2.43;1.87;;;;;;;1.90;45.11;97071.66;5041026;28;20487;-86
2021/03/20 10:44:57;;;;;;;4.30;2.80;;;;;;;1.85;46.22;97076.94;5040180;28;20451;-87
2021/03/20 10:47:29;;;;;;;3.80;2.20;;;;;;;2.09;46.26;97061.50;5038513;28;20807;-87
2021/03/20 10:49:59;;;;;;;4.17;2.57;;;;;;;2.41;46.19;97060.41;5038274;28;20459;-87
2021/03/20 10:52:30;;;;;;;3.73;2.20;;;;;;;2.47;46.69;97071.13;5040954;28;20431;-88
2021/03/20 10:55:00;;;;;;;3.53;2.43;;;;;;;2.11;46.24;97054.50;5041278;28;20443;-89
2021/03/20 10:57:30;;;;;;;4.97;3.20;;;;;;;2.09;46.09;97054.25;5041119;28;20450;-88
2021/03/20 10:59:58;;;;;;;4.60;2.60;;;;;;;2.25;46.46;97058.31;5041283;28;21034;-87
2021/03/20 11:02:28;;;;;;;4.10;1.97;;;;;;;2.12;46.08;97050.66;5041966;28;20586;-88
2021/03/20 11:05:09;;;;;;;3.30;2.13;;;;;;;2.09;45.46;97066.81;5041163;28;20476;-88
2021/03/20 11:07:45;;;;;;;3.93;2.47;;;;;;;1.81;43.70;97055.09;5040346;28;20467;-86
2021/03/20 11:10:13;;;;;;;6.03;2.40;;;;;;;1.91;45.22;97049.16;5041104;28;20526;-89
2021/03/20 11:12:39;;;;;;;3.70;2.13;;;;;;;2.01;44.33;97050.50;5037570;28;20872;-87
2021/03/20 11:15:07;;;;;;;3.80;2.40;;;;;;;2.11;43.98;97056.44;5039518;28;20436;-90
2021/03/20 11:17:35;;;;;;;2.80;1.87;;;;;;;2.12;43.79;97055.25;5040642;28;20534;-88
2021/03/20 11:20:06;;;;;;;5.17;2.70;;;;;;;1.69;46.10;97072.84;5043614;28;20463;-89
2021/03/20 11:22:38;;;;;;;4.60;2.70;;;;;;;1.83;46.56;97068.66;5049431;28;20491;-89
2021/03/20 11:25:08;;;;;;;2.83;2.33;;;;;;;2.15;45.91;97076.34;5050326;28;20438;-88
2021/03/20 11:27:36;;;;;;;6.33;3.07;;;;;;;2.17;43.77;97070.53;5050898;28;20528;-88
2021/03/20 11:30:13;;;;;;;3.40;2.50;;;;;;;2.28;45.61;97062.69;5049465;28;20523;-87
2021/03/20 11:32:40;;;;;;;2.90;2.60;;;;;;;2.47;44.90;97060.47;5047505;28;20454;-88
2021/03/20 11:35:15;;;;;;;10.07;2.70;;;;;;;2.68;44.67;97064.56;5044726;28;20506;-88
2021/03/20 11:37:44;;;;;;;3.80;2.37;;;;;;;2.20;42.98;97058.22;5043094;28;20970;-88
2021/03/20 11:40:25;;;;;;;3.80;2.60;;;;;;;2.25;45.77;97060.97;5042975;28;20441;-87
2021/03/20 11:42:54;;;;;;;2.87;2.57;;;;;;;2.44;44.52;97056.84;5042858;28;20866;-87
2021/03/20 11:45:25;;;;;;;4.20;2.47;;;;;;;2.08;45.75;97058.09;5043716;28;20486;-87
2021/03/20 11:47:54;;;;;;;5.80;2.37;;;;;;;2.22;45.62;97053.91;5043568;28;20475;-87
2021/03/20 11:50:24;;;;;;;3.30;2.70;;;;;;;2.50;44.84;97052.28;5043008;28;20478;-87
2021/03/20 11:52:53;;;;;;;3.53;2.53;;;;;;;2.76;44.71;97059.56;5043729;28;20515;-87
2021/03/20 11:55:22;;;;;;;5.90;2.63;;;;;;;2.79;45.00;97056.66;5044314;28;20526;-86
2021/03/20 11:57:50;;;;;;;11.00;2.63;;;;;;;2.77;45.18;97043.09;5043151;28;20471;-87
2021/03/20 12:00:37;;;;;;;4.60;2.57;;;;;;;2.45;45.45;97049.56;5044296;28;20505;-87